Time;durP1;ratioP1;P1;durP2;ratioP2;P2;SDS_P1;SDS_P2;PMS_P1;PMS_P2;Temp;Humidity;BMP_temperature;BMP_pressure;BME280_temperature;BME280_humidity;BME280_pressure;Samples;Min_cycle;Max_cycle;Signal;HPM_P1;HPM_P2
2023/12/21 00:00:21;;;;;;;23.67;4.72;;;10.10;99.90;;;9.61;100.00;101939.84;4169497;28;20033;-73
2023/12/21 00:02:22;;;;;;;22.13;4.47;;;10.10;99.90;;;9.61;100.00;101936.38;4168281;28;20083;-74
2023/12/21 00:04:23;;;;;;;28.60;4.82;;;10.10;99.90;;;9.62;100.00;101936.22;4169075;28;20028;-74
2023/12/21 00:06:23;;;;;;;22.83;5.00;;;10.20;99.90;;;9.63;100.00;101935.28;4163945;28;20026;-74
2023/12/21 00:08:24;;;;;;;27.00;5.68;;;10.20;99.90;;;9.65;100.00;101930.72;4169473;28;20033;-74
2023/12/21 00:10:25;;;;;;;23.23;5.40;;;10.20;99.90;;;9.67;100.00;101935.88;4151776;28;20026;-74
2023/12/21 00:12:26;;;;;;;20.70;4.78;;;10.20;99.90;;;9.69;100.00;101939.22;4168125;28;20037;-74
2023/12/21 00:14:30;;;;;;;17.50;4.90;;;10.20;99.90;;;9.71;100.00;101942.56;4183906;28;20021;-74
2023/12/21 00:16:30;;;;;;;27.42;6.55;;;10.30;99.90;;;9.71;100.00;101932.88;4168122;28;20029;-74
2023/12/21 00:18:31;;;;;;;25.52;4.53;;;10.20;99.90;;;9.76;100.00;101946.53;4167968;28;20052;-73
2023/12/21 00:20:32;;;;;;;18.95;5.18;;;10.30;99.90;;;9.74;100.00;101937.06;4184171;28;20025;-74
2023/12/21 00:22:33;;;;;;;19.52;5.20;;;10.30;99.90;;;9.71;100.00;101927.59;4169195;28;20025;-74
2023/12/21 00:24:34;;;;;;;31.30;6.35;;;10.30;99.90;;;9.70;100.00;101922.47;4168045;28;20222;-74
2023/12/21 00:26:34;;;;;;;27.65;5.53;;;10.30;99.90;;;9.74;100.00;101923.88;4200298;28;20017;-74
2023/12/21 00:28:36;;;;;;;25.85;4.55;;;10.30;99.90;;;9.77;100.00;101927.13;4169133;28;20028;-74
2023/12/21 00:30:37;;;;;;;20.77;4.40;;;10.30;99.90;;;9.76;100.00;101927.25;4168849;28;20033;-74
2023/12/21 00:32:38;;;;;;;27.15;4.47;;;10.30;99.90;;;9.79;100.00;101913.84;4169107;28;20036;-74
2023/12/21 00:34:38;;;;;;;19.58;4.55;;;10.30;99.90;;;9.79;100.00;101913.84;4168843;28;20025;-73
2023/12/21 00:36:39;;;;;;;25.63;5.22;;;10.30;99.90;;;9.78;100.00;101917.41;4159861;28;20038;-74
2023/12/21 00:38:40;;;;;;;27.77;4.75;;;10.30;99.90;;;9.78;100.00;101913.00;4166367;28;20396;-74
2023/12/21 00:40:41;;;;;;;19.10;5.13;;;10.30;99.90;;;9.79;100.00;101909.41;4167758;28;20040;-74
2023/12/21 00:42:42;;;;;;;22.17;6.22;;;10.30;99.90;;;9.82;100.00;101909.16;4167755;28;20029;-74
2023/12/21 00:44:43;;;;;;;21.55;4.75;;;10.30;99.90;;;9.80;100.00;101905.78;4168934;28;20558;-74
2023/12/21 00:46:44;;;;;;;26.73;5.28;;;10.30;99.90;;;9.80;100.00;101904.94;4168732;28;20029;-74
2023/12/21 00:48:44;;;;;;;28.27;4.97;;;10.30;99.90;;;9.81;100.00;101904.00;4168795;28;20029;-74
2023/12/21 00:50:45;;;;;;;16.45;4.15;;;10.30;99.90;;;9.79;100.00;101896.22;4200706;28;20032;-74
2023/12/21 00:52:46;;;;;;;26.33;4.72;;;10.30;99.90;;;9.80;100.00;101881.22;4167043;28;20048;-74
2023/12/21 00:54:47;;;;;;;19.30;4.65;;;10.30;99.90;;;9.83;100.00;101863.38;4200119;28;20078;-74
2023/12/21 00:56:48;;;;;;;22.20;5.22;;;10.30;99.90;;;9.82;100.00;101859.09;4161583;28;20390;-74
2023/12/21 00:58:49;;;;;;;26.00;4.32;;;10.40;99.90;;;9.84;100.00;101864.22;4167826;28;20099;-73
2023/12/21 01:00:50;;;;;;;23.92;4.07;;;10.40;99.90;;;9.86;100.00;101857.03;4167511;28;20030;-74
2023/12/21 01:02:51;;;;;;;22.60;7.00;;;10.30;99.90;;;9.84;100.00;101845.78;4168680;28;20028;-74
2023/12/21 01:04:52;;;;;;;20.52;4.85;;;10.40;99.90;;;9.87;100.00;101845.53;4168657;28;20026;-74
2023/12/21 01:06:53;;;;;;;16.30;4.30;;;10.40;99.90;;;9.87;100.00;101843.72;4164586;28;20025;-74
2023/12/21 01:08:53;;;;;;;20.95;5.65;;;10.40;99.90;;;9.87;100.00;101835.00;4168769;28;20034;-74
2023/12/21 01:10:54;;;;;;;26.48;4.30;;;10.40;99.90;;;9.88;100.00;101828.75;4167509;28;20033;-74
2023/12/21 01:12:55;;;;;;;22.48;5.68;;;10.40;99.90;;;9.88;100.00;101815.59;4168641;28;20040;-74
2023/12/21 01:14:56;;;;;;;22.48;4.10;;;10.40;99.90;;;9.90;100.00;101818.94;4168657;28;20026;-74
2023/12/21 01:16:57;;;;;;;27.75;4.55;;;10.40;99.90;;;9.87;100.00;101812.13;4168337;28;20497;-74
2023/12/21 01:18:58;;;;;;;17.02;5.35;;;10.50;99.90;;;9.88;100.00;101808.53;4167425;28;20485;-74
2023/12/21 01:20:59;;;;;;;17.58;3.10;;;10.40;99.90;;;9.92;100.00;101806.44;4167008;28;20036;-74
2023/12/21 01:23:00;;;;;;;25.33;4.22;;;10.40;99.90;;;9.86;100.00;101791.97;4168629;28;20022;-73
2023/12/21 01:25:01;;;;;;;22.50;4.43;;;10.50;99.90;;;9.93;100.00;101794.97;4167118;28;20025;-74
2023/12/21 01:27:02;;;;;;;21.95;3.83;;;10.50;99.90;;;9.95;100.00;101791.22;4168821;28;20021;-74
2023/12/21 01:29:03;;;;;;;12.88;3.72;;;10.50;99.90;;;9.95;100.00;101799.13;4171717;28;20493;-74
2023/12/21 01:31:03;;;;;;;16.30;3.85;;;10.50;99.90;;;9.95;100.00;101793.88;4171737;28;20036;-74
2023/12/21 01:33:04;;;;;;;13.38;4.22;;;10.50;99.90;;;9.96;100.00;101798.19;4171943;28;20033;-74
2023/12/21 01:35:06;;;;;;;19.20;4.30;;;10.50;99.90;;;9.97;100.00;101796.38;4171722;28;20026;-74
2023/12/21 01:37:06;;;;;;;15.85;3.72;;;10.50;99.90;;;10.01;100.00;101801.25;4161321;28;20563;-74
2023/12/21 01:39:08;;;;;;;23.85;4.28;;;10.50;99.90;;;10.05;100.00;101799.22;4171761;28;20033;-74
2023/12/21 01:41:09;;;;;;;23.67;4.55;;;10.50;99.90;;;10.02;100.00;101799.47;4171658;28;20095;-74
2023/12/21 01:43:10;;;;;;;25.15;4.18;;;10.50;99.90;;;10.05;100.00;101795.75;4170487;28;20507;-74
2023/12/21 01:45:12;;;;;;;14.88;3.13;;;10.60;99.90;;;10.06;100.00;101805.34;4170366;28;20021;-74
2023/12/21 01:47:13;;;;;;;13.43;3.28;;;10.60;99.90;;;10.06;100.00;101815.88;4170279;28;20025;-74
2023/12/21 01:49:14;;;;;;;14.90;4.07;;;10.60;99.90;;;10.08;100.00;101829.75;4171488;28;20025;-74
2023/12/21 01:51:15;;;;;;;14.82;4.20;;;10.60;99.90;;;10.09;100.00;101842.81;4170210;28;20029;-74
2023/12/21 01:53:16;;;;;;;17.25;3.55;;;10.60;99.90;;;10.11;100.00;101845.31;4169501;28;20033;-74
2023/12/21 01:55:17;;;;;;;13.90;2.75;;;10.70;99.90;;;10.10;100.00;101854.19;4170528;28;20029;-74
2023/12/21 01:57:18;;;;;;;10.52;2.35;;;10.70;99.90;;;10.11;100.00;101853.22;4165113;28;20056;-74
2023/12/21 01:59:19;;;;;;;12.48;2.53;;;10.60;99.90;;;10.14;100.00;101839.81;4170220;28;20144;-74
2023/12/21 02:01:20;;;;;;;16.80;4.00;;;10.70;99.90;;;10.16;100.00;101844.00;4169896;28;20483;-73
2023/12/21 02:03:21;;;;;;;11.00;2.80;;;10.70;99.90;;;10.13;100.00;101835.47;4170067;28;20029;-73
2023/12/21 02:05:22;;;;;;;11.73;2.28;;;10.70;99.90;;;10.15;100.00;101834.44;4186539;28;20079;-74
2023/12/21 02:07:23;;;;;;;12.27;2.90;;;10.70;99.90;;;10.14;100.00;101824.84;4170015;28;20109;-74
2023/12/21 02:09:24;;;;;;;13.32;3.05;;;10.70;99.90;;;10.12;100.00;101818.84;4170014;28;20026;-74
2023/12/21 02:11:25;;;;;;;11.70;2.95;;;10.70;99.90;;;10.10;100.00;101812.00;4170121;28;20033;-74
2023/12/21 02:13:26;;;;;;;15.32;2.35;;;10.70;99.90;;;10.11;100.00;101811.06;4171212;28;20034;-74
2023/12/21 02:15:27;;;;;;;18.98;2.88;;;10.70;99.90;;;10.14;100.00;101821.38;4169980;28;20070;-74
2023/12/21 02:17:29;;;;;;;11.93;2.05;;;10.70;99.90;;;10.13;100.00;101809.13;4168715;28;20536;-74
2023/12/21 02:19:31;;;;;;;13.02;2.75;;;10.70;99.90;;;10.11;100.00;101818.97;4153387;28;20036;-74
2023/12/21 02:21:34;;;;;;;12.88;2.35;;;10.70;99.90;;;10.13;100.00;101817.91;4169997;28;20454;-74
2023/12/21 02:23:37;;;;;;;12.00;2.60;;;10.70;99.90;;;10.11;100.00;101797.88;4171061;28;20497;-74
2023/12/21 02:25:37;;;;;;;11.18;2.17;;;10.70;99.90;;;10.10;100.00;101783.00;4153318;28;20022;-74
2023/12/21 02:27:38;;;;;;;14.30;2.92;;;10.70;99.90;;;10.19;100.00;101783.13;4169795;28;20537;-74
2023/12/21 02:29:39;;;;;;;9.50;2.67;;;10.70;99.90;;;10.16;100.00;101772.81;4171062;28;20024;-74
2023/12/21 02:31:40;;;;;;;12.13;3.55;;;10.70;99.90;;;10.16;100.00;101777.25;4202844;28;20511;-74
2023/12/21 02:33:41;;;;;;;10.82;2.33;;;10.70;99.90;;;10.21;100.00;101793.53;4169625;28;20032;-74
2023/12/21 02:35:42;;;;;;;19.17;2.92;;;10.80;99.90;;;10.22;100.00;101782.84;4170697;28;20022;-74
2023/12/21 02:37:43;;;;;;;9.60;2.83;;;10.70;99.90;;;10.18;100.00;101784.09;4161428;28;20566;-74
2023/12/21 02:39:44;;;;;;;12.98;3.30;;;10.70;99.90;;;10.24;100.00;101793.28;4169543;28;20029;-74
2023/12/21 02:41:47;;;;;;;17.85;3.08;;;10.70;99.90;;;10.22;100.00;101785.50;4169447;28;20408;-74
2023/12/21 02:43:48;;;;;;;11.77;2.80;;;10.80;99.90;;;10.23;100.00;101786.34;4170907;28;20100;-74
2023/12/21 02:45:49;;;;;;;11.75;3.45;;;10.70;99.90;;;10.20;100.00;101774.25;4153027;28;20097;-74
2023/12/21 02:47:50;;;;;;;12.30;3.33;;;10.70;99.90;;;10.20;100.00;101781.31;4170730;28;20029;-74
2023/12/21 02:49:51;;;;;;;11.65;2.88;;;10.70;99.90;;;10.17;100.00;101779.78;4170360;28;20029;-74
2023/12/21 02:51:51;;;;;;;11.10;3.42;;;10.80;99.90;;;10.20;100.00;101778.69;4168894;28;20018;-74
2023/12/21 02:53:52;;;;;;;13.32;3.22;;;10.70;99.90;;;10.22;100.00;101782.84;4202298;28;20031;-74
2023/12/21 02:55:53;;;;;;;13.52;3.33;;;10.80;99.90;;;10.19;100.00;101783.13;4169949;28;20396;-74
2023/12/21 02:57:54;;;;;;;9.25;2.60;;;10.70;99.90;;;10.19;100.00;101779.63;4186150;28;20023;-74
2023/12/21 02:59:55;;;;;;;10.43;2.58;;;10.70;99.90;;;10.18;100.00;101776.19;4170525;28;20045;-74
2023/12/21 03:01:55;;;;;;;15.07;3.60;;;10.70;99.90;;;10.17;100.00;101771.88;4170525;28;20497;-74
2023/12/21 03:03:56;;;;;;;9.68;2.25;;;10.70;99.90;;;10.19;100.00;101761.19;4169065;28;20036;-74
2023/12/21 03:05:57;;;;;;;11.05;2.20;;;10.70;99.90;;;10.20;100.00;101754.94;4169134;28;20021;-74
2023/12/21 03:07:58;;;;;;;9.15;2.97;;;10.70;99.90;;;10.22;100.00;101753.00;4184436;28;20025;-74
2023/12/21 03:09:59;;;;;;;7.65;2.38;;;10.70;99.90;;;10.18;100.00;101751.63;4170577;28;20084;-74
2023/12/21 03:12:00;;;;;;;10.45;2.67;;;10.70;99.90;;;10.17;100.00;101732.31;4170475;28;20025;-74
2023/12/21 03:14:01;;;;;;;9.70;2.30;;;10.70;99.90;;;10.15;100.00;101722.88;4170478;28;20041;-74
2023/12/21 03:16:06;;;;;;;14.50;3.15;;;10.70;99.90;;;10.11;100.00;101714.34;4168989;28;20037;-74
2023/12/21 03:18:07;;;;;;;12.50;2.83;;;10.70;99.90;;;10.15;100.00;101717.59;4168859;28;20132;-74
2023/12/21 03:20:08;;;;;;;11.45;2.92;;;10.70;99.90;;;10.11;100.00;101710.88;4168719;28;20156;-74
2023/12/21 03:22:09;;;;;;;9.40;2.63;;;10.70;99.90;;;10.15;100.00;101718.44;4168457;28;20047;-74
2023/12/21 03:24:10;;;;;;;12.40;3.15;;;10.70;99.90;;;10.13;100.00;101717.72;4169982;28;20029;-74
2023/12/21 03:26:11;;;;;;;9.02;2.47;;;10.60;99.90;;;10.12;100.00;101712.56;4199266;28;20016;-74
2023/12/21 03:28:14;;;;;;;11.55;3.22;;;10.70;99.90;;;10.16;100.00;101735.06;4161124;28;20135;-74
2023/12/21 03:30:15;;;;;;;12.32;2.72;;;10.70;99.90;;;10.17;100.00;101734.13;4169821;28;20044;-74
2023/12/21 03:32:15;;;;;;;14.50;3.63;;;10.70;99.90;;;10.21;100.00;101730.25;4169835;28;20061;-74
2023/12/21 03:34:16;;;;;;;12.30;3.08;;;10.70;99.90;;;10.24;100.00;101735.28;4168566;28;20045;-74
2023/12/21 03:36:17;;;;;;;9.10;2.83;;;10.70;99.90;;;10.24;100.00;101737.91;4166585;28;20056;-74
2023/12/21 03:38:18;;;;;;;8.05;2.50;;;10.70;99.90;;;10.24;100.00;101735.28;4164975;28;20497;-74
2023/12/21 03:40:19;;;;;;;5.88;1.45;;;10.80;99.90;;;10.24;100.00;101725.56;4168414;28;20037;-74
2023/12/21 03:42:20;;;;;;;11.00;2.33;;;10.80;99.90;;;10.23;100.00;101723.88;4170154;28;20025;-74
2023/12/21 03:44:21;;;;;;;9.77;1.67;;;10.80;99.90;;;10.26;100.00;101722.78;4168534;28;20029;-74
2023/12/21 03:46:22;;;;;;;8.23;1.67;;;10.80;99.90;;;10.27;100.00;101706.84;4169695;28;20067;-74
2023/12/21 03:48:23;;;;;;;9.15;2.63;;;10.80;99.90;;;10.29;100.00;101709.34;4167943;28;20028;-74
2023/12/21 03:50:24;;;;;;;8.52;1.48;;;10.80;99.90;;;10.27;100.00;101696.31;4167333;28;20030;-74
2023/12/21 03:52:25;;;;;;;10.20;1.80;;;10.80;99.90;;;10.26;100.00;101689.34;4168347;28;20037;-74
2023/12/21 03:54:26;;;;;;;8.27;1.92;;;10.80;99.90;;;10.28;100.00;101676.84;4169610;28;20034;-74
2023/12/21 03:56:26;;;;;;;4.70;2.05;;;10.80;99.90;;;10.28;100.00;101670.75;4169488;28;20029;-74
2023/12/21 03:58:27;;;;;;;6.95;2.03;;;10.80;99.90;;;10.28;100.00;101661.03;4169809;28;20025;-74
2023/12/21 04:00:28;;;;;;;9.80;2.78;;;10.80;99.90;;;10.30;100.00;101660.94;4169475;28;20021;-74
2023/12/21 04:02:30;;;;;;;4.60;1.60;;;10.80;99.90;;;10.32;100.00;101664.25;4169498;28;20036;-74
2023/12/21 04:04:32;;;;;;;5.60;1.60;;;10.80;99.90;;;10.30;100.00;101642.47;4167919;28;20014;-74
2023/12/21 04:06:33;;;;;;;7.80;1.50;;;10.90;99.90;;;10.31;100.00;101652.03;4166687;28;20032;-74
2023/12/21 04:08:34;;;;;;;8.38;1.73;;;10.90;99.90;;;10.32;100.00;101654.53;4168289;28;20022;-74
2023/12/21 04:10:35;;;;;;;7.18;1.50;;;10.90;99.90;;;10.35;100.00;101682.44;4169369;28;20038;-74
2023/12/21 04:12:36;;;;;;;7.43;1.83;;;10.90;99.90;;;10.31;100.00;101681.03;4151708;28;20040;-74
2023/12/21 04:14:37;;;;;;;7.38;1.75;;;10.90;99.90;;;10.35;100.00;101675.38;4168263;28;20411;-74
2023/12/21 04:16:38;;;;;;;8.50;2.25;;;10.90;99.90;;;10.36;100.00;101698.13;4167887;28;20116;-74
2023/12/21 04:18:39;;;;;;;6.43;1.90;;;10.90;99.90;;;10.38;100.00;101695.38;4201150;28;20543;-74
2023/12/21 04:20:40;;;;;;;7.40;2.30;;;10.90;99.90;;;10.36;100.00;101711.31;4200793;28;20036;-74
2023/12/21 04:22:41;;;;;;;8.10;1.50;;;10.90;99.90;;;10.36;100.00;101692.84;4167912;28;20477;-74
2023/12/21 04:24:41;;;;;;;7.55;1.23;;;10.90;99.90;;;10.39;100.00;101699.69;4169351;28;20111;-74
2023/12/21 04:26:42;;;;;;;5.07;1.35;;;10.90;99.90;;;10.42;100.00;101699.44;4163145;28;20029;-73
2023/12/21 04:28:43;;;;;;;4.85;0.90;;;10.90;99.90;;;10.48;100.00;101691.00;4179841;28;20028;-74
2023/12/21 04:30:44;;;;;;;5.60;1.70;;;10.90;99.90;;;10.51;100.00;101680.19;4166614;28;20452;-74
2023/12/21 04:32:45;;;;;;;4.50;1.10;;;11.00;99.90;;;10.51;100.00;101672.25;4169346;28;20084;-74
2023/12/21 04:34:46;;;;;;;3.30;0.60;;;11.00;99.90;;;10.54;100.00;101666.72;4168966;28;20052;-74
2023/12/21 04:36:47;;;;;;;3.90;1.30;;;11.10;99.90;;;10.58;100.00;101665.47;4162560;28;20056;-74
2023/12/21 04:38:47;;;;;;;3.42;0.90;;;11.10;99.90;;;10.60;100.00;101674.09;4199470;28;20065;-74
2023/12/21 04:40:48;;;;;;;6.50;0.73;;;11.10;99.90;;;10.61;100.00;101669.63;4167790;28;20536;-74
2023/12/21 04:42:55;;;;;;;5.72;1.13;;;11.10;99.90;;;10.61;100.00;101659.94;4168995;28;20026;-74
2023/12/21 04:44:55;;;;;;;8.07;1.13;;;11.10;99.90;;;10.62;100.00;101661.59;4169083;28;20116;-74
2023/12/21 04:46:56;;;;;;;3.63;1.38;;;11.10;99.90;;;10.61;100.00;101656.44;4163252;28;20022;-73
2023/12/21 04:48:57;;;;;;;3.72;0.85;;;11.10;99.90;;;10.63;100.00;101654.53;4168843;28;20055;-74
2023/12/21 04:50:58;;;;;;;3.67;0.93;;;11.10;99.90;;;10.61;100.00;101654.66;4167555;28;20026;-74
2023/12/21 04:52:59;;;;;;;6.95;1.23;;;11.20;99.90;;;10.61;100.00;101644.09;4151304;28;20034;-74
2023/12/21 04:55:00;;;;;;;7.95;1.30;;;11.10;99.90;;;10.62;100.00;101645.78;4151052;28;20029;-74
2023/12/21 04:57:01;;;;;;;4.32;1.20;;;11.10;99.90;;;10.48;100.00;101627.69;4168948;28;20026;-74
2023/12/21 04:59:01;;;;;;;7.05;1.13;;;11.10;99.90;;;10.55;100.00;101620.88;4200511;28;20082;-73
2023/12/21 05:01:04;;;;;;;10.77;1.83;;;11.10;99.90;;;10.57;100.00;101626.88;4167233;28;20401;-74
2023/12/21 05:03:05;;;;;;;4.15;0.98;;;11.10;99.90;;;10.56;100.00;101630.47;4199935;28;20032;-73
2023/12/21 05:05:06;;;;;;;3.90;0.90;;;11.10;99.90;;;10.55;100.00;101642.84;4188863;28;20016;-74
2023/12/21 05:07:10;;;;;;;5.18;1.05;;;11.10;99.90;;;10.57;100.00;101643.53;4168169;28;20101;-73
2023/12/21 05:09:11;;;;;;;5.05;1.38;;;11.10;99.90;;;10.56;100.00;101635.75;4168687;28;20516;-74
2023/12/21 05:11:11;;;;;;;6.07;0.95;;;11.10;99.90;;;10.60;100.00;101646.88;4168649;28;20041;-74
2023/12/21 05:13:13;;;;;;;4.90;0.75;;;11.10;99.90;;;10.60;100.00;101658.28;4168244;28;20404;-74
2023/12/21 05:15:13;;;;;;;10.98;0.90;;;11.10;99.90;;;10.54;100.00;101648.25;4168628;28;20029;-74
2023/12/21 05:17:14;;;;;;;3.38;0.80;;;11.10;99.90;;;10.56;100.00;101638.38;4158959;28;20509;-74
2023/12/21 05:19:15;;;;;;;4.40;1.08;;;11.10;99.90;;;10.59;100.00;101627.56;4198537;28;20032;-74
2023/12/21 05:21:16;;;;;;;3.45;0.70;;;11.10;99.90;;;10.60;100.00;101631.88;4150979;28;20022;-74
2023/12/21 05:23:17;;;;;;;2.67;0.98;;;11.10;99.90;;;10.60;100.00;101637.16;4160053;28;20036;-73
2023/12/21 05:25:18;;;;;;;9.27;1.20;;;11.10;99.90;;;10.60;100.00;101644.25;4168536;28;20018;-74
2023/12/21 05:27:18;;;;;;;5.07;0.75;;;11.10;99.90;;;10.57;100.00;101643.53;4159377;28;20022;-74
2023/12/21 05:29:19;;;;;;;2.97;0.68;;;11.20;99.90;;;10.61;100.00;101649.38;4167323;28;20428;-74
2023/12/21 05:31:24;;;;;;;4.13;0.60;;;11.10;99.90;;;10.60;100.00;101653.00;4168560;28;20029;-74
2023/12/21 05:33:25;;;;;;;2.90;0.60;;;11.10;99.90;;;10.59;100.00;101646.03;4167330;28;20128;-74
2023/12/21 05:35:25;;;;;;;3.97;0.50;;;11.10;99.90;;;10.65;100.00;101653.41;4166930;28;20030;-74
2023/12/21 05:37:27;;;;;;;2.22;0.90;;;11.10;99.90;;;10.62;100.00;101653.69;4200142;28;20431;-74
2023/12/21 05:39:28;;;;;;;5.63;0.73;;;11.20;99.90;;;10.62;100.00;101645.78;4150850;28;20026;-74
2023/12/21 05:41:28;;;;;;;4.35;1.00;;;11.10;99.90;;;10.61;100.00;101633.53;4168334;28;20374;-74
2023/12/21 05:43:29;;;;;;;3.40;0.60;;;11.10;99.90;;;10.62;100.00;101624.66;4167131;28;20026;-74
2023/12/21 05:45:30;;;;;;;4.78;0.90;;;11.20;99.90;;;10.60;100.00;101621.34;4168504;28;20025;-74
2023/12/21 05:47:31;;;;;;;2.15;1.05;;;11.10;99.90;;;10.63;100.00;101628.97;4200218;28;20411;-74
2023/12/21 05:49:32;;;;;;;1.80;0.65;;;11.10;99.90;;;10.60;100.00;101626.63;4166907;28;20030;-74
2023/12/21 05:51:33;;;;;;;1.27;0.50;;;11.20;99.90;;;10.70;100.00;101632.72;4166420;28;20489;-74
2023/12/21 05:53:34;;;;;;;7.20;0.93;;;11.20;99.90;;;10.66;100.00;101626.06;4168410;28;20400;-74
2023/12/21 05:55:35;;;;;;;5.10;0.65;;;11.20;99.90;;;10.67;100.00;101625.09;4168527;28;20061;-74
2023/12/21 05:57:36;;;;;;;5.25;0.77;;;11.20;99.90;;;10.66;100.00;101619.97;4166297;28;20025;-74
2023/12/21 05:59:37;;;;;;;5.70;1.30;;;11.20;99.90;;;10.70;100.00;101645.94;4150588;28;20030;-74
2023/12/21 06:01:39;;;;;;;7.45;1.42;;;11.20;99.90;;;10.69;100.00;101631.09;4155365;28;20099;-74
2023/12/21 06:03:40;;;;;;;2.53;0.40;;;11.20;99.90;;;10.72;100.00;101630.78;4167086;28;20104;-74
2023/12/21 06:05:41;;;;;;;1.58;0.43;;;11.20;99.90;;;10.74;100.00;101635.94;4168034;28;20029;-74
2023/12/21 06:07:42;;;;;;;2.15;1.00;;;11.20;99.90;;;10.71;100.00;101634.41;4155693;28;20054;-74
2023/12/21 06:09:43;;;;;;;1.25;0.40;;;11.20;99.90;;;10.73;100.00;101632.47;4199791;28;20025;-74
2023/12/21 06:11:44;;;;;;;2.90;0.85;;;11.20;99.90;;;10.72;100.00;101622.88;4168248;28;20432;-74
2023/12/21 06:13:45;;;;;;;3.10;1.00;;;11.20;99.90;;;10.73;100.00;101632.47;4169770;28;20029;-74
2023/12/21 06:15:46;;;;;;;2.83;0.88;;;11.20;99.90;;;10.75;100.00;101624.44;4202931;28;20416;-74
2023/12/21 06:17:47;;;;;;;2.92;1.13;;;11.20;99.90;;;10.73;100.00;101627.19;4159831;28;20050;-74
2023/12/21 06:19:48;;;;;;;2.45;0.70;;;11.30;99.90;;;10.73;100.00;101619.25;4169717;28;20087;-74
2023/12/21 06:21:48;;;;;;;3.58;1.27;;;11.30;99.90;;;10.75;100.00;101616.50;4153456;28;20069;-74
2023/12/21 06:23:49;;;;;;;3.63;1.02;;;11.30;99.90;;;10.73;100.00;101621.06;4169773;28;20060;-74
2023/12/21 06:25:50;;;;;;;2.78;0.77;;;11.30;99.90;;;10.69;100.00;101625.81;4169758;28;20043;-74
2023/12/21 06:27:51;;;;;;;4.13;0.57;;;11.30;99.90;;;10.79;100.00;101652.19;4169762;28;20029;-74
2023/12/21 06:29:52;;;;;;;4.07;0.65;;;11.30;99.90;;;10.78;100.00;101650.53;4169964;28;20552;-74
2023/12/21 06:31:53;;;;;;;2.63;0.50;;;11.30;99.90;;;10.82;100.00;101639.56;4186244;28;20036;-74
2023/12/21 06:33:54;;;;;;;1.60;0.40;;;11.40;99.90;;;10.79;100.00;101639.84;4169616;28;20030;-74
2023/12/21 06:35:55;;;;;;;1.85;0.50;;;11.40;99.90;;;10.87;100.00;101649.75;4169574;28;20029;-74
2023/12/21 06:37:57;;;;;;;4.07;0.32;;;11.40;99.90;;;10.90;100.00;101649.47;4163142;28;20064;-74
2023/12/21 06:39:57;;;;;;;2.65;0.70;;;11.40;99.90;;;10.87;100.00;101642.63;4169485;28;20409;-74
2023/12/21 06:41:58;;;;;;;3.22;0.38;;;11.40;99.90;;;10.88;100.00;101640.81;4169479;28;20031;-74
2023/12/21 06:43:59;;;;;;;1.20;0.65;;;11.40;99.90;;;10.91;100.00;101644.03;4169727;28;20443;-74
2023/12/21 06:46:02;;;;;;;5.07;0.60;;;11.40;99.90;;;10.96;100.00;101649.72;4170737;28;20022;-74
2023/12/21 06:48:03;;;;;;;2.13;0.32;;;11.50;99.90;;;10.95;100.00;101650.72;4170540;28;20022;-74
2023/12/21 06:50:06;;;;;;;4.80;0.50;;;11.40;99.90;;;10.99;100.00;101652.09;4185718;28;20055;-74
2023/12/21 06:52:07;;;;;;;2.35;0.50;;;11.50;99.90;;;10.96;100.00;101631.25;4153374;28;20024;-74
2023/12/21 06:54:07;;;;;;;3.97;0.63;;;11.50;99.90;;;10.99;100.00;101633.63;4170705;28;20477;-74
2023/12/21 06:56:10;;;;;;;2.58;0.60;;;11.50;99.90;;;10.95;100.00;101642.81;4177016;28;20026;-74
2023/12/21 06:58:11;;;;;;;2.67;0.40;;;11.50;99.90;;;10.99;100.00;101648.66;4170109;28;20025;-73
2023/12/21 07:00:12;;;;;;;2.13;0.40;;;11.50;99.90;;;11.03;100.00;101650.88;4169213;28;20034;-74
2023/12/21 07:02:13;;;;;;;2.33;0.75;;;11.60;99.90;;;11.03;100.00;101640.31;4169755;28;20579;-74
2023/12/21 07:04:14;;;;;;;0.90;0.22;;;11.60;99.90;;;11.05;100.00;101642.81;4202228;28;20080;-74
2023/12/21 07:06:15;;;;;;;2.83;0.90;;;11.60;99.90;;;11.06;100.00;101640.03;4152669;28;20029;-74
2023/12/21 07:08:19;;;;;;;2.70;0.60;;;11.60;99.90;;;11.07;100.00;101631.16;4170248;28;20026;-74
2023/12/21 07:10:21;;;;;;;;;;;11.60;99.90;;;11.02;100.00;101651.81;4170923;28;20033;-74
2023/12/21 07:12:24;;;;;;;3.67;0.95;;;11.60;99.90;;;11.05;100.00;101658.66;4202064;28;19974;-74
2023/12/21 07:14:25;;;;;;;5.95;1.20;;;11.60;99.90;;;11.08;100.00;101669.75;4169067;28;20632;-74
2023/12/21 07:16:26;;;;;;;2.05;0.93;;;11.60;99.90;;;11.08;100.00;101676.84;4153615;28;20161;-74
2023/12/21 07:18:27;;;;;;;4.82;1.75;;;11.60;99.90;;;11.07;100.00;101676.03;4161654;28;20053;-74
2023/12/21 07:20:30;;;;;;;2.70;0.93;;;11.60;99.90;;;11.06;100.00;101673.50;4168749;28;20029;-74
2023/12/21 07:22:31;;;;;;;1.92;1.27;;;11.60;99.90;;;11.06;100.00;101671.72;4168889;28;20104;-74
2023/12/21 07:24:32;;;;;;;3.95;1.85;;;11.60;99.90;;;11.03;100.00;101672.00;4167781;28;20083;-74
2023/12/21 07:26:33;;;;;;;7.32;1.63;;;11.60;99.90;;;11.06;100.00;101653.22;4167075;28;20536;-74
2023/12/21 07:28:35;;;;;;;5.95;1.40;;;11.60;99.90;;;11.07;100.00;101667.28;4197086;28;20033;-74
2023/12/21 07:30:35;;;;;;;2.08;0.98;;;11.60;99.90;;;11.05;100.00;101670.03;4169932;28;20407;-74
2023/12/21 07:32:36;;;;;;;3.17;1.25;;;11.60;99.90;;;11.10;100.00;101686.31;4168968;28;20025;-74
2023/12/21 07:34:37;;;;;;;2.53;1.08;;;11.60;99.90;;;11.10;100.00;101681.03;4169758;28;20052;-74
2023/12/21 07:36:38;;;;;;;3.40;0.90;;;11.60;99.90;;;11.06;100.00;101676.16;4167487;28;20033;-74
2023/12/21 07:38:40;;;;;;;4.25;1.45;;;11.60;99.90;;;11.11;100.00;101695.06;4199891;28;20423;-74
2023/12/21 07:40:40;;;;;;;2.05;0.80;;;11.60;99.90;;;11.11;100.00;101685.34;4169834;28;20083;-74
2023/12/21 07:42:41;;;;;;;2.58;0.80;;;11.60;99.90;;;11.11;100.00;101684.50;4169858;28;20017;-74
2023/12/21 07:44:42;;;;;;;2.65;0.50;;;11.60;99.90;;;11.14;100.00;101678.13;4168620;28;20025;-74
2023/12/21 07:46:43;;;;;;;2.22;0.40;;;11.60;99.90;;;11.15;100.00;101679.78;4166567;28;20061;-74
2023/12/21 07:48:44;;;;;;;3.55;0.50;;;11.60;99.90;;;11.23;100.00;101687.88;4168499;28;20029;-74
2023/12/21 07:50:45;;;;;;;4.13;0.73;;;11.70;99.90;;;11.21;100.00;101681.88;4169507;28;20037;-74
2023/12/21 07:52:46;;;;;;;0.90;0.40;;;11.70;99.90;;;11.23;100.00;101688.69;4169556;28;20030;-74
2023/12/21 07:54:47;;;;;;;1.23;0.57;;;11.70;99.90;;;11.24;100.00;101692.16;4168354;28;20029;-74
2023/12/21 07:56:48;;;;;;;1.85;0.50;;;11.70;99.90;;;11.25;100.00;101697.31;4168388;28;20025;-74
2023/12/21 07:58:48;;;;;;;2.42;0.60;;;11.70;99.90;;;11.30;100.00;101700.38;4169560;28;20401;-73
2023/12/21 08:00:49;;;;;;;4.15;0.50;;;11.80;99.90;;;11.31;100.00;101696.78;4169039;28;20026;-74
2023/12/21 08:02:50;;;;;;;1.60;0.50;;;11.80;99.90;;;11.36;100.00;101694.53;4169423;28;20018;-74
2023/12/21 08:04:51;;;;;;;4.03;0.80;;;11.90;99.90;;;11.41;100.00;101712.66;4168092;28;20028;-74
2023/12/21 08:06:52;;;;;;;3.72;1.00;;;11.90;99.90;;;11.40;100.00;101716.25;4165830;28;20017;-74
2023/12/21 08:08:53;;;;;;;1.83;0.28;;;11.90;99.90;;;11.39;100.00;101717.22;4194322;28;20029;-74
2023/12/21 08:10:54;;;;;;;6.35;1.08;;;11.90;99.90;;;11.41;100.00;101712.66;4168132;28;20021;-74
2023/12/21 08:12:55;;;;;;;2.30;0.80;;;11.90;99.90;;;11.44;100.00;101699.16;4169303;28;20033;-74
2023/12/21 08:14:55;;;;;;;1.25;0.40;;;11.90;99.90;;;11.43;100.00;101687.75;4169389;28;20036;-74
2023/12/21 08:16:59;;;;;;;2.75;0.60;;;11.90;99.90;;;11.49;100.00;101689.00;4172337;28;20044;-74